This is the latest recevied weather packets stored in our database for station/object HS5NMF. If no packets are shown the sender has not sent any weather packets the latest 10 day(s).
| Time | Temp. | Humidity | Pressure | Rain* | Wind** | Luminosity | Snow |
|---|---|---|---|---|---|---|---|
| 1778227115 | 30° C | 80% | 976 hPa | - | - | 0 W/m² | - |
| 1778226792 | 30° C | 79% | 976 hPa | - | - | 0 W/m² | - |
| 1778226468 | 30° C | 82% | 976 hPa | - | - | 0 W/m² | - |
| 1778226145 | 29.44° C | 83% | 976 hPa | - | - | 0 W/m² | - |
| 1778225821 | 30° C | 78% | 976 hPa | - | - | 0 W/m² | - |
| 1778225497 | 29.44° C | 80% | 976 hPa | - | - | 0 W/m² | - |
| 1778225173 | 30° C | 77% | 976 hPa | - | - | 0 W/m² | - |
| 1778224849 | 30° C | 75% | 976 hPa | - | - | 0 W/m² | - |
| 1778224524 | 30° C | 76% | 976 hPa | - | - | 0 W/m² | - |
| 1778224201 | 30° C | 74% | 976 hPa | - | - | 0 W/m² | - |
| 1778223877 | 30.56° C | 70% | 976 hPa | - | - | 0 W/m² | - |
| 1778223552 | 30.56° C | 71% | 976 hPa | - | - | 0 W/m² | - |
| 1778223229 | 30.56° C | 70% | 976 hPa | - | - | 0 W/m² | - |
| 1778222904 | 30.56° C | 69% | 976 hPa | - | - | 0 W/m² | - |
| 1778222581 | 30° C | 70% | 976 hPa | - | - | 0 W/m² | - |
| 1778222257 | 30.56° C | 69% | 976 hPa | - | - | 0 W/m² | - |
| 1778221933 | 29.44° C | 71% | 976 hPa | - | - | 0 W/m² | - |
| 1778221607 | 30° C | 70% | 976 hPa | - | - | 0 W/m² | - |
| 1778221284 | 30° C | 70% | 977 hPa | - | - | 0 W/m² | - |
| 1778220959 | 30° C | 71% | 976 hPa | - | - | 0 W/m² | - |
| 1778220636 | 30.56° C | 68% | 976 hPa | - | - | 0 W/m² | - |
| 1778220312 | 31.67° C | 62% | 977 hPa | - | - | 0 W/m² | - |
| 1778219989 | 31.11° C | 65% | 977 hPa | - | - | 0 W/m² | - |
| 1778219667 | 30.56° C | 66% | 977 hPa | - | - | 0 W/m² | - |
| 1778219344 | 31.67° C | 64% | 977 hPa | - | - | 0 W/m² | - |
* Rain since midnight (hover to see other rain measurements)
** Current wind speed in m/s (hover to see current wind gust speed)